sensor_id;sensor_type;location;lat;lon;timestamp;P1;durP1;ratioP1;P2;durP2;ratioP2
79009;SDS011;73031;44.726;37.760;2024-02-14T00:00:25;26.30;;;8.68;;
79009;SDS011;73031;44.726;37.760;2024-02-14T00:01:26;36.38;;;9.23;;
79009;SDS011;73031;44.726;37.760;2024-02-14T00:02:27;30.83;;;9.23;;
79009;SDS011;73031;44.726;37.760;2024-02-14T00:03:29;45.85;;;9.82;;
79009;SDS011;73031;44.726;37.760;2024-02-14T00:04:30;27.27;;;8.77;;
79009;SDS011;73031;44.726;37.760;2024-02-14T00:05:31;35.85;;;9.43;;
79009;SDS011;73031;44.726;37.760;2024-02-14T00:06:34;26.40;;;8.65;;
79009;SDS011;73031;44.726;37.760;2024-02-14T00:07:37;31.90;;;9.48;;
79009;SDS011;73031;44.726;37.760;2024-02-14T00:08:40;27.05;;;8.68;;
79009;SDS011;73031;44.726;37.760;2024-02-14T00:09:41;25.77;;;8.18;;
79009;SDS011;73031;44.726;37.760;2024-02-14T00:10:42;20.30;;;9.02;;
79009;SDS011;73031;44.726;37.760;2024-02-14T00:11:45;29.20;;;8.93;;
79009;SDS011;73031;44.726;37.760;2024-02-14T00:12:46;24.92;;;8.02;;
79009;SDS011;73031;44.726;37.760;2024-02-14T00:13:48;19.85;;;8.10;;
79009;SDS011;73031;44.726;37.760;2024-02-14T00:14:50;26.88;;;8.32;;
79009;SDS011;73031;44.726;37.760;2024-02-14T00:15:51;20.50;;;7.82;;
79009;SDS011;73031;44.726;37.760;2024-02-14T00:16:52;24.00;;;8.27;;
79009;SDS011;73031;44.726;37.760;2024-02-14T00:17:54;28.65;;;8.48;;
79009;SDS011;73031;44.726;37.760;2024-02-14T00:18:55;32.65;;;8.35;;
79009;SDS011;73031;44.726;37.760;2024-02-14T00:19:57;26.27;;;8.80;;
79009;SDS011;73031;44.726;37.760;2024-02-14T00:20:58;25.10;;;8.80;;
79009;SDS011;73031;44.726;37.760;2024-02-14T00:21:59;26.58;;;8.50;;
79009;SDS011;73031;44.726;37.760;2024-02-14T00:23:00;27.02;;;9.00;;
79009;SDS011;73031;44.726;37.760;2024-02-14T00:24:05;22.30;;;8.65;;
79009;SDS011;73031;44.726;37.760;2024-02-14T00:25:07;21.45;;;8.35;;
79009;SDS011;73031;44.726;37.760;2024-02-14T00:26:09;26.70;;;8.48;;
79009;SDS011;73031;44.726;37.760;2024-02-14T00:27:10;23.70;;;8.52;;
79009;SDS011;73031;44.726;37.760;2024-02-14T00:28:12;27.55;;;8.57;;
79009;SDS011;73031;44.726;37.760;2024-02-14T00:29:13;21.80;;;8.02;;
79009;SDS011;73031;44.726;37.760;2024-02-14T00:30:14;24.02;;;8.38;;
79009;SDS011;73031;44.726;37.760;2024-02-14T00:31:16;25.88;;;8.13;;
79009;SDS011;73031;44.726;37.760;2024-02-14T00:32:17;26.00;;;8.07;;
79009;SDS011;73031;44.726;37.760;2024-02-14T00:33:18;29.05;;;9.43;;
79009;SDS011;73031;44.726;37.760;2024-02-14T00:34:21;25.20;;;8.40;;
79009;SDS011;73031;44.726;37.760;2024-02-14T00:35:22;27.00;;;7.95;;
79009;SDS011;73031;44.726;37.760;2024-02-14T00:36:23;25.23;;;8.48;;
79009;SDS011;73031;44.726;37.760;2024-02-14T00:37:24;24.42;;;7.97;;
79009;SDS011;73031;44.726;37.760;2024-02-14T00:38:25;26.95;;;8.77;;
79009;SDS011;73031;44.726;37.760;2024-02-14T00:39:26;31.42;;;8.52;;
79009;SDS011;73031;44.726;37.760;2024-02-14T00:40:28;20.33;;;8.23;;
79009;SDS011;73031;44.726;37.760;2024-02-14T00:41:29;27.00;;;8.20;;
79009;SDS011;73031;44.726;37.760;2024-02-14T00:42:30;22.75;;;7.78;;
79009;SDS011;73031;44.726;37.760;2024-02-14T00:43:31;24.08;;;7.78;;
79009;SDS011;73031;44.726;37.760;2024-02-14T00:44:32;20.02;;;7.95;;
79009;SDS011;73031;44.726;37.760;2024-02-14T00:45:33;24.95;;;9.55;;
79009;SDS011;73031;44.726;37.760;2024-02-14T00:46:35;30.88;;;8.73;;
79009;SDS011;73031;44.726;37.760;2024-02-14T00:47:36;26.08;;;8.23;;
79009;SDS011;73031;44.726;37.760;2024-02-14T00:48:37;21.38;;;8.18;;
79009;SDS011;73031;44.726;37.760;2024-02-14T00:49:38;24.25;;;8.32;;
79009;SDS011;73031;44.726;37.760;2024-02-14T00:50:39;25.27;;;8.20;;
79009;SDS011;73031;44.726;37.760;2024-02-14T00:51:40;28.88;;;8.27;;
79009;SDS011;73031;44.726;37.760;2024-02-14T00:52:42;23.48;;;8.27;;
79009;SDS011;73031;44.726;37.760;2024-02-14T00:53:43;25.80;;;8.15;;
79009;SDS011;73031;44.726;37.760;2024-02-14T00:54:44;20.65;;;7.85;;
79009;SDS011;73031;44.726;37.760;2024-02-14T00:55:45;27.13;;;8.15;;
79009;SDS011;73031;44.726;37.760;2024-02-14T00:56:46;26.90;;;7.93;;
79009;SDS011;73031;44.726;37.760;2024-02-14T00:57:47;28.13;;;7.97;;
79009;SDS011;73031;44.726;37.760;2024-02-14T00:58:49;20.75;;;7.93;;
79009;SDS011;73031;44.726;37.760;2024-02-14T00:59:50;19.90;;;7.85;;
79009;SDS011;73031;44.726;37.760;2024-02-14T01:00:51;26.92;;;8.95;;
79009;SDS011;73031;44.726;37.760;2024-02-14T01:01:52;23.65;;;7.18;;
79009;SDS011;73031;44.726;37.760;2024-02-14T01:02:53;27.10;;;7.63;;
79009;SDS011;73031;44.726;37.760;2024-02-14T01:03:54;23.70;;;7.63;;
79009;SDS011;73031;44.726;37.760;2024-02-14T01:04:55;24.65;;;7.60;;
79009;SDS011;73031;44.726;37.760;2024-02-14T01:05:56;23.33;;;7.85;;
79009;SDS011;73031;44.726;37.760;2024-02-14T01:06:57;17.52;;;8.93;;
79009;SDS011;73031;44.726;37.760;2024-02-14T01:07:59;21.33;;;7.30;;
79009;SDS011;73031;44.726;37.760;2024-02-14T01:09:00;16.08;;;6.72;;
79009;SDS011;73031;44.726;37.760;2024-02-14T01:10:02;24.42;;;7.38;;
79009;SDS011;73031;44.726;37.760;2024-02-14T01:11:03;19.23;;;7.57;;
79009;SDS011;73031;44.726;37.760;2024-02-14T01:12:04;24.60;;;7.75;;
79009;SDS011;73031;44.726;37.760;2024-02-14T01:13:06;21.63;;;7.53;;
79009;SDS011;73031;44.726;37.760;2024-02-14T01:14:07;20.05;;;8.25;;
79009;SDS011;73031;44.726;37.760;2024-02-14T01:15:08;23.20;;;7.75;;
79009;SDS011;73031;44.726;37.760;2024-02-14T01:16:10;23.08;;;7.30;;
79009;SDS011;73031;44.726;37.760;2024-02-14T01:17:11;22.40;;;7.57;;
79009;SDS011;73031;44.726;37.760;2024-02-14T01:18:12;27.95;;;7.95;;
79009;SDS011;73031;44.726;37.760;2024-02-14T01:19:13;28.38;;;8.40;;
79009;SDS011;73031;44.726;37.760;2024-02-14T01:20:14;23.08;;;7.72;;
79009;SDS011;73031;44.726;37.760;2024-02-14T01:21:16;27.77;;;8.52;;
79009;SDS011;73031;44.726;37.760;2024-02-14T01:22:17;22.23;;;7.57;;
79009;SDS011;73031;44.726;37.760;2024-02-14T01:23:18;18.25;;;7.15;;
79009;SDS011;73031;44.726;37.760;2024-02-14T01:24:20;21.38;;;7.53;;
79009;SDS011;73031;44.726;37.760;2024-02-14T01:25:22;15.15;;;7.28;;
79009;SDS011;73031;44.726;37.760;2024-02-14T01:26:23;19.67;;;7.45;;
79009;SDS011;73031;44.726;37.760;2024-02-14T01:27:25;21.00;;;6.90;;
79009;SDS011;73031;44.726;37.760;2024-02-14T01:28:26;22.30;;;7.22;;
79009;SDS011;73031;44.726;37.760;2024-02-14T01:29:27;22.20;;;7.97;;
79009;SDS011;73031;44.726;37.760;2024-02-14T01:30:28;22.05;;;7.57;;
79009;SDS011;73031;44.726;37.760;2024-02-14T01:31:29;23.73;;;7.45;;
79009;SDS011;73031;44.726;37.760;2024-02-14T01:32:30;15.63;;;6.75;;
79009;SDS011;73031;44.726;37.760;2024-02-14T01:33:32;20.38;;;7.32;;
79009;SDS011;73031;44.726;37.760;2024-02-14T01:34:33;20.23;;;7.10;;
79009;SDS011;73031;44.726;37.760;2024-02-14T01:35:34;19.73;;;7.55;;
79009;SDS011;73031;44.726;37.760;2024-02-14T01:36:35;18.13;;;7.05;;
79009;SDS011;73031;44.726;37.760;2024-02-14T01:37:39;16.33;;;7.00;;
79009;SDS011;73031;44.726;37.760;2024-02-14T01:38:40;17.13;;;7.07;;
79009;SDS011;73031;44.726;37.760;2024-02-14T01:39:43;19.20;;;6.75;;
79009;SDS011;73031;44.726;37.760;2024-02-14T01:40:44;15.05;;;6.93;;
79009;SDS011;73031;44.726;37.760;2024-02-14T01:41:46;22.75;;;7.28;;
79009;SDS011;73031;44.726;37.760;2024-02-14T01:42:48;15.93;;;8.23;;
79009;SDS011;73031;44.726;37.760;2024-02-14T01:43:49;18.25;;;6.60;;
79009;SDS011;73031;44.726;37.760;2024-02-14T01:44:51;16.45;;;7.57;;
79009;SDS011;73031;44.726;37.760;2024-02-14T01:45:52;21.95;;;7.13;;
79009;SDS011;73031;44.726;37.760;2024-02-14T01:46:53;24.92;;;7.43;;
79009;SDS011;73031;44.726;37.760;2024-02-14T01:47:54;35.30;;;8.07;;
79009;SDS011;73031;44.726;37.760;2024-02-14T01:48:56;25.33;;;7.20;;
79009;SDS011;73031;44.726;37.760;2024-02-14T01:49:57;21.95;;;6.93;;
79009;SDS011;73031;44.726;37.760;2024-02-14T01:50:59;27.55;;;7.45;;
79009;SDS011;73031;44.726;37.760;2024-02-14T01:52:02;29.65;;;7.38;;
79009;SDS011;73031;44.726;37.760;2024-02-14T01:53:04;19.13;;;7.00;;
79009;SDS011;73031;44.726;37.760;2024-02-14T01:54:05;22.90;;;7.03;;
79009;SDS011;73031;44.726;37.760;2024-02-14T01:55:07;25.27;;;7.32;;
79009;SDS011;73031;44.726;37.760;2024-02-14T01:56:09;24.13;;;7.90;;
79009;SDS011;73031;44.726;37.760;2024-02-14T01:57:10;33.28;;;8.13;;
79009;SDS011;73031;44.726;37.760;2024-02-14T01:58:12;23.55;;;8.07;;
79009;SDS011;73031;44.726;37.760;2024-02-14T01:59:13;34.50;;;8.73;;
79009;SDS011;73031;44.726;37.760;2024-02-14T02:00:16;28.23;;;8.27;;
79009;SDS011;73031;44.726;37.760;2024-02-14T02:01:18;25.52;;;7.70;;
79009;SDS011;73031;44.726;37.760;2024-02-14T02:02:19;27.35;;;8.10;;
79009;SDS011;73031;44.726;37.760;2024-02-14T02:03:21;29.23;;;7.53;;
79009;SDS011;73031;44.726;37.760;2024-02-14T02:04:24;23.20;;;7.45;;
79009;SDS011;73031;44.726;37.760;2024-02-14T02:05:25;25.15;;;6.85;;
79009;SDS011;73031;44.726;37.760;2024-02-14T02:06:26;28.60;;;7.15;;
79009;SDS011;73031;44.726;37.760;2024-02-14T02:07:28;27.27;;;7.22;;
79009;SDS011;73031;44.726;37.760;2024-02-14T02:08:30;32.78;;;7.13;;
79009;SDS011;73031;44.726;37.760;2024-02-14T02:09:33;32.00;;;7.30;;
79009;SDS011;73031;44.726;37.760;2024-02-14T02:10:34;23.85;;;7.43;;
79009;SDS011;73031;44.726;37.760;2024-02-14T02:11:44;23.10;;;6.88;;
79009;SDS011;73031;44.726;37.760;2024-02-14T02:12:48;22.73;;;7.07;;
79009;SDS011;73031;44.726;37.760;2024-02-14T02:13:51;29.88;;;8.18;;
79009;SDS011;73031;44.726;37.760;2024-02-14T02:14:53;40.15;;;6.97;;
79009;SDS011;73031;44.726;37.760;2024-02-14T02:15:54;26.67;;;8.00;;
79009;SDS011;73031;44.726;37.760;2024-02-14T02:16:55;24.98;;;6.60;;
79009;SDS011;73031;44.726;37.760;2024-02-14T02:17:57;22.05;;;6.90;;
79009;SDS011;73031;44.726;37.760;2024-02-14T02:19:00;26.38;;;7.63;;
79009;SDS011;73031;44.726;37.760;2024-02-14T02:20:01;29.85;;;7.35;;
79009;SDS011;73031;44.726;37.760;2024-02-14T02:21:02;36.05;;;7.45;;
79009;SDS011;73031;44.726;37.760;2024-02-14T02:22:07;26.40;;;7.28;;
79009;SDS011;73031;44.726;37.760;2024-02-14T02:23:09;25.50;;;7.00;;
79009;SDS011;73031;44.726;37.760;2024-02-14T02:24:16;33.15;;;6.68;;
79009;SDS011;73031;44.726;37.760;2024-02-14T02:25:18;29.25;;;8.60;;
79009;SDS011;73031;44.726;37.760;2024-02-14T02:26:24;33.78;;;7.82;;
79009;SDS011;73031;44.726;37.760;2024-02-14T02:27:25;36.10;;;8.73;;
79009;SDS011;73031;44.726;37.760;2024-02-14T02:28:26;39.75;;;8.43;;
79009;SDS011;73031;44.726;37.760;2024-02-14T02:29:27;34.28;;;7.95;;
79009;SDS011;73031;44.726;37.760;2024-02-14T02:30:29;20.33;;;8.63;;
79009;SDS011;73031;44.726;37.760;2024-02-14T02:31:30;29.42;;;7.03;;
79009;SDS011;73031;44.726;37.760;2024-02-14T02:32:32;22.40;;;7.43;;
79009;SDS011;73031;44.726;37.760;2024-02-14T02:33:33;25.17;;;7.30;;
79009;SDS011;73031;44.726;37.760;2024-02-14T02:34:34;28.17;;;7.50;;
79009;SDS011;73031;44.726;37.760;2024-02-14T02:35:35;31.42;;;7.90;;
79009;SDS011;73031;44.726;37.760;2024-02-14T02:36:36;28.98;;;8.02;;
79009;SDS011;73031;44.726;37.760;2024-02-14T02:37:38;37.97;;;7.78;;
79009;SDS011;73031;44.726;37.760;2024-02-14T02:38:40;35.03;;;7.97;;
79009;SDS011;73031;44.726;37.760;2024-02-14T02:39:41;36.88;;;8.35;;
79009;SDS011;73031;44.726;37.760;2024-02-14T02:40:42;35.25;;;8.63;;
79009;SDS011;73031;44.726;37.760;2024-02-14T02:41:44;29.67;;;8.23;;
79009;SDS011;73031;44.726;37.760;2024-02-14T02:42:47;40.45;;;10.23;;
79009;SDS011;73031;44.726;37.760;2024-02-14T02:43:50;45.83;;;10.00;;
79009;SDS011;73031;44.726;37.760;2024-02-14T02:44:52;39.78;;;8.35;;
79009;SDS011;73031;44.726;37.760;2024-02-14T02:45:53;28.60;;;8.52;;
79009;SDS011;73031;44.726;37.760;2024-02-14T02:46:54;35.33;;;7.68;;
79009;SDS011;73031;44.726;37.760;2024-02-14T02:47:56;31.23;;;8.05;;
79009;SDS011;73031;44.726;37.760;2024-02-14T02:48:57;37.67;;;7.85;;
79009;SDS011;73031;44.726;37.760;2024-02-14T02:49:59;32.97;;;8.45;;
79009;SDS011;73031;44.726;37.760;2024-02-14T02:51:03;34.58;;;8.02;;
79009;SDS011;73031;44.726;37.760;2024-02-14T02:52:04;33.95;;;8.45;;
79009;SDS011;73031;44.726;37.760;2024-02-14T02:53:06;44.72;;;8.50;;
79009;SDS011;73031;44.726;37.760;2024-02-14T02:54:07;26.95;;;8.50;;
79009;SDS011;73031;44.726;37.760;2024-02-14T02:55:09;42.38;;;10.00;;
79009;SDS011;73031;44.726;37.760;2024-02-14T02:56:11;24.25;;;7.88;;
79009;SDS011;73031;44.726;37.760;2024-02-14T02:57:13;35.78;;;9.05;;
79009;SDS011;73031;44.726;37.760;2024-02-14T02:58:15;32.40;;;8.48;;
79009;SDS011;73031;44.726;37.760;2024-02-14T02:59:16;26.95;;;7.80;;
79009;SDS011;73031;44.726;37.760;2024-02-14T03:00:18;26.60;;;7.93;;
79009;SDS011;73031;44.726;37.760;2024-02-14T03:01:21;23.70;;;7.18;;
79009;SDS011;73031;44.726;37.760;2024-02-14T03:02:25;27.83;;;8.23;;
79009;SDS011;73031;44.726;37.760;2024-02-14T03:03:26;22.98;;;7.03;;
79009;SDS011;73031;44.726;37.760;2024-02-14T03:04:28;21.27;;;7.47;;
79009;SDS011;73031;44.726;37.760;2024-02-14T03:05:31;30.20;;;7.97;;
79009;SDS011;73031;44.726;37.760;2024-02-14T03:06:33;26.95;;;7.60;;
79009;SDS011;73031;44.726;37.760;2024-02-14T03:07:35;25.42;;;6.85;;
79009;SDS011;73031;44.726;37.760;2024-02-14T03:08:36;17.73;;;6.25;;
79009;SDS011;73031;44.726;37.760;2024-02-14T03:09:38;16.38;;;6.78;;
79009;SDS011;73031;44.726;37.760;2024-02-14T03:10:39;14.52;;;6.07;;
79009;SDS011;73031;44.726;37.760;2024-02-14T03:11:41;22.80;;;6.53;;
79009;SDS011;73031;44.726;37.760;2024-02-14T03:12:42;17.95;;;7.40;;
79009;SDS011;73031;44.726;37.760;2024-02-14T03:13:43;23.30;;;6.35;;
79009;SDS011;73031;44.726;37.760;2024-02-14T03:14:44;18.05;;;6.43;;
79009;SDS011;73031;44.726;37.760;2024-02-14T03:15:45;19.58;;;5.85;;
79009;SDS011;73031;44.726;37.760;2024-02-14T03:16:47;22.02;;;6.55;;
79009;SDS011;73031;44.726;37.760;2024-02-14T03:17:48;15.95;;;5.90;;
79009;SDS011;73031;44.726;37.760;2024-02-14T03:18:50;17.75;;;6.57;;
79009;SDS011;73031;44.726;37.760;2024-02-14T03:19:51;23.13;;;7.50;;
79009;SDS011;73031;44.726;37.760;2024-02-14T03:20:52;24.33;;;6.88;;
79009;SDS011;73031;44.726;37.760;2024-02-14T03:21:56;20.95;;;7.90;;
79009;SDS011;73031;44.726;37.760;2024-02-14T03:22:57;36.30;;;8.18;;
79009;SDS011;73031;44.726;37.760;2024-02-14T03:23:59;22.10;;;7.22;;
79009;SDS011;73031;44.726;37.760;2024-02-14T03:25:00;22.08;;;6.35;;
79009;SDS011;73031;44.726;37.760;2024-02-14T03:26:01;27.90;;;7.97;;
79009;SDS011;73031;44.726;37.760;2024-02-14T03:27:03;13.70;;;6.05;;
79009;SDS011;73031;44.726;37.760;2024-02-14T03:28:07;18.13;;;7.13;;
79009;SDS011;73031;44.726;37.760;2024-02-14T03:29:09;17.10;;;7.63;;
79009;SDS011;73031;44.726;37.760;2024-02-14T03:30:10;15.52;;;5.65;;
79009;SDS011;73031;44.726;37.760;2024-02-14T03:31:13;24.13;;;5.78;;
79009;SDS011;73031;44.726;37.760;2024-02-14T03:32:15;18.63;;;5.68;;
79009;SDS011;73031;44.726;37.760;2024-02-14T03:33:17;25.08;;;8.32;;
79009;SDS011;73031;44.726;37.760;2024-02-14T03:34:19;31.88;;;8.15;;
79009;SDS011;73031;44.726;37.760;2024-02-14T03:35:20;18.40;;;7.00;;
79009;SDS011;73031;44.726;37.760;2024-02-14T03:36:22;25.38;;;7.07;;
79009;SDS011;73031;44.726;37.760;2024-02-14T03:37:25;25.27;;;7.05;;
79009;SDS011;73031;44.726;37.760;2024-02-14T03:38:26;26.20;;;8.45;;
79009;SDS011;73031;44.726;37.760;2024-02-14T03:39:28;80.55;;;27.35;;
79009;SDS011;73031;44.726;37.760;2024-02-14T03:40:31;250.20;;;123.25;;
79009;SDS011;73031;44.726;37.760;2024-02-14T03:41:32;112.80;;;50.10;;
79009;SDS011;73031;44.726;37.760;2024-02-14T03:42:36;65.28;;;23.17;;
79009;SDS011;73031;44.726;37.760;2024-02-14T03:43:40;31.17;;;8.13;;
79009;SDS011;73031;44.726;37.760;2024-02-14T03:44:41;32.38;;;9.73;;
79009;SDS011;73031;44.726;37.760;2024-02-14T03:45:42;44.92;;;12.35;;
79009;SDS011;73031;44.726;37.760;2024-02-14T03:46:43;42.45;;;12.85;;
79009;SDS011;73031;44.726;37.760;2024-02-14T03:47:45;43.53;;;9.00;;
79009;SDS011;73031;44.726;37.760;2024-02-14T03:48:46;53.70;;;9.88;;
79009;SDS011;73031;44.726;37.760;2024-02-14T03:49:48;33.35;;;8.82;;
79009;SDS011;73031;44.726;37.760;2024-02-14T03:50:49;26.17;;;7.70;;
79009;SDS011;73031;44.726;37.760;2024-02-14T03:51:50;36.00;;;8.13;;
79009;SDS011;73031;44.726;37.760;2024-02-14T03:52:55;33.10;;;7.97;;
79009;SDS011;73031;44.726;37.760;2024-02-14T03:53:56;41.78;;;8.55;;
79009;SDS011;73031;44.726;37.760;2024-02-14T03:54:57;41.40;;;9.23;;
79009;SDS011;73031;44.726;37.760;2024-02-14T03:56:00;41.53;;;9.55;;
79009;SDS011;73031;44.726;37.760;2024-02-14T03:57:01;38.92;;;10.18;;
79009;SDS011;73031;44.726;37.760;2024-02-14T03:58:02;24.73;;;7.22;;
79009;SDS011;73031;44.726;37.760;2024-02-14T03:59:05;23.25;;;7.70;;
79009;SDS011;73031;44.726;37.760;2024-02-14T04:00:06;21.20;;;6.97;;
79009;SDS011;73031;44.726;37.760;2024-02-14T04:01:10;30.48;;;6.90;;
79009;SDS011;73031;44.726;37.760;2024-02-14T04:02:12;47.80;;;8.73;;
79009;SDS011;73031;44.726;37.760;2024-02-14T04:03:13;42.22;;;8.77;;
79009;SDS011;73031;44.726;37.760;2024-02-14T04:04:15;29.08;;;8.23;;
79009;SDS011;73031;44.726;37.760;2024-02-14T04:05:16;37.58;;;12.48;;
79009;SDS011;73031;44.726;37.760;2024-02-14T04:06:17;37.40;;;10.25;;
79009;SDS011;73031;44.726;37.760;2024-02-14T04:07:19;33.10;;;9.23;;
79009;SDS011;73031;44.726;37.760;2024-02-14T04:08:20;33.65;;;14.02;;
79009;SDS011;73031;44.726;37.760;2024-02-14T04:09:22;69.32;;;28.40;;
79009;SDS011;73031;44.726;37.760;2024-02-14T04:10:23;27.10;;;10.35;;
79009;SDS011;73031;44.726;37.760;2024-02-14T04:11:24;36.08;;;10.00;;
79009;SDS011;73031;44.726;37.760;2024-02-14T04:12:25;52.03;;;10.13;;
79009;SDS011;73031;44.726;37.760;2024-02-14T04:13:26;54.58;;;10.80;;
79009;SDS011;73031;44.726;37.760;2024-02-14T04:14:28;46.45;;;10.20;;
79009;SDS011;73031;44.726;37.760;2024-02-14T04:15:29;38.90;;;9.05;;
79009;SDS011;73031;44.726;37.760;2024-02-14T04:16:31;42.00;;;10.40;;
79009;SDS011;73031;44.726;37.760;2024-02-14T04:17:32;35.38;;;8.23;;
79009;SDS011;73031;44.726;37.760;2024-02-14T04:18:33;35.40;;;8.75;;
79009;SDS011;73031;44.726;37.760;2024-02-14T04:19:34;46.80;;;9.40;;
79009;SDS011;73031;44.726;37.760;2024-02-14T04:20:35;49.92;;;10.32;;
79009;SDS011;73031;44.726;37.760;2024-02-14T04:21:37;49.42;;;11.40;;
79009;SDS011;73031;44.726;37.760;2024-02-14T04:22:38;48.47;;;10.60;;
79009;SDS011;73031;44.726;37.760;2024-02-14T04:23:39;47.75;;;9.88;;
79009;SDS011;73031;44.726;37.760;2024-02-14T04:24:41;56.03;;;10.20;;
79009;SDS011;73031;44.726;37.760;2024-02-14T04:25:42;41.72;;;10.18;;
79009;SDS011;73031;44.726;37.760;2024-02-14T04:26:43;35.08;;;10.23;;
79009;SDS011;73031;44.726;37.760;2024-02-14T04:27:44;56.83;;;10.80;;
79009;SDS011;73031;44.726;37.760;2024-02-14T04:28:46;58.78;;;9.98;;
79009;SDS011;73031;44.726;37.760;2024-02-14T04:29:47;54.85;;;11.32;;
79009;SDS011;73031;44.726;37.760;2024-02-14T04:30:48;49.20;;;10.40;;
79009;SDS011;73031;44.726;37.760;2024-02-14T04:31:49;64.53;;;10.15;;
79009;SDS011;73031;44.726;37.760;2024-02-14T04:32:51;49.00;;;10.75;;
79009;SDS011;73031;44.726;37.760;2024-02-14T04:33:52;52.33;;;9.82;;
79009;SDS011;73031;44.726;37.760;2024-02-14T04:34:54;47.10;;;9.90;;
79009;SDS011;73031;44.726;37.760;2024-02-14T04:35:55;38.08;;;9.02;;
79009;SDS011;73031;44.726;37.760;2024-02-14T04:36:56;49.67;;;10.18;;
79009;SDS011;73031;44.726;37.760;2024-02-14T04:37:58;44.65;;;9.05;;
79009;SDS011;73031;44.726;37.760;2024-02-14T04:38:59;44.85;;;8.38;;
79009;SDS011;73031;44.726;37.760;2024-02-14T04:40:01;38.42;;;8.15;;
79009;SDS011;73031;44.726;37.760;2024-02-14T04:41:04;38.03;;;8.48;;
79009;SDS011;73031;44.726;37.760;2024-02-14T04:42:05;42.88;;;8.55;;
79009;SDS011;73031;44.726;37.760;2024-02-14T04:43:06;44.40;;;8.93;;
79009;SDS011;73031;44.726;37.760;2024-02-14T04:44:08;51.10;;;10.15;;
79009;SDS011;73031;44.726;37.760;2024-02-14T04:45:09;42.15;;;9.23;;
79009;SDS011;73031;44.726;37.760;2024-02-14T04:46:10;43.17;;;10.00;;
79009;SDS011;73031;44.726;37.760;2024-02-14T04:47:12;34.95;;;9.35;;
79009;SDS011;73031;44.726;37.760;2024-02-14T04:48:13;48.33;;;8.88;;
79009;SDS011;73031;44.726;37.760;2024-02-14T04:49:14;46.47;;;9.40;;
79009;SDS011;73031;44.726;37.760;2024-02-14T04:50:15;51.95;;;10.73;;
79009;SDS011;73031;44.726;37.760;2024-02-14T04:51:16;46.72;;;10.18;;
79009;SDS011;73031;44.726;37.760;2024-02-14T04:52:17;73.07;;;12.40;;
79009;SDS011;73031;44.726;37.760;2024-02-14T04:53:19;45.60;;;9.65;;
79009;SDS011;73031;44.726;37.760;2024-02-14T04:54:20;52.88;;;10.77;;
79009;SDS011;73031;44.726;37.760;2024-02-14T04:55:21;48.60;;;10.70;;
79009;SDS011;73031;44.726;37.760;2024-02-14T04:56:22;52.90;;;11.15;;
79009;SDS011;73031;44.726;37.760;2024-02-14T04:57:23;44.05;;;9.60;;
79009;SDS011;73031;44.726;37.760;2024-02-14T04:58:25;41.33;;;10.25;;
79009;SDS011;73031;44.726;37.760;2024-02-14T04:59:27;57.78;;;10.52;;
79009;SDS011;73031;44.726;37.760;2024-02-14T05:00:28;57.20;;;10.18;;
79009;SDS011;73031;44.726;37.760;2024-02-14T05:01:29;35.40;;;9.93;;
79009;SDS011;73031;44.726;37.760;2024-02-14T05:02:31;39.95;;;8.32;;
79009;SDS011;73031;44.726;37.760;2024-02-14T05:03:32;45.67;;;10.07;;
79009;SDS011;73031;44.726;37.760;2024-02-14T05:04:33;39.75;;;10.25;;
79009;SDS011;73031;44.726;37.760;2024-02-14T05:05:38;39.53;;;9.95;;
79009;SDS011;73031;44.726;37.760;2024-02-14T05:06:39;48.42;;;8.70;;
79009;SDS011;73031;44.726;37.760;2024-02-14T05:07:40;40.45;;;9.65;;
79009;SDS011;73031;44.726;37.760;2024-02-14T05:08:41;41.90;;;10.40;;
79009;SDS011;73031;44.726;37.760;2024-02-14T05:09:43;43.17;;;9.43;;
79009;SDS011;73031;44.726;37.760;2024-02-14T05:10:45;41.88;;;11.00;;
79009;SDS011;73031;44.726;37.760;2024-02-14T05:11:46;48.28;;;11.32;;
79009;SDS011;73031;44.726;37.760;2024-02-14T05:12:47;39.47;;;10.65;;
79009;SDS011;73031;44.726;37.760;2024-02-14T05:13:48;30.23;;;9.68;;
79009;SDS011;73031;44.726;37.760;2024-02-14T05:14:49;42.10;;;10.57;;
79009;SDS011;73031;44.726;37.760;2024-02-14T05:15:50;47.92;;;10.50;;
79009;SDS011;73031;44.726;37.760;2024-02-14T05:16:52;46.08;;;11.70;;
79009;SDS011;73031;44.726;37.760;2024-02-14T05:17:53;63.40;;;12.73;;
79009;SDS011;73031;44.726;37.760;2024-02-14T05:18:54;53.85;;;13.93;;
79009;SDS011;73031;44.726;37.760;2024-02-14T05:19:55;70.95;;;15.00;;
79009;SDS011;73031;44.726;37.760;2024-02-14T05:20:57;80.25;;;13.40;;
79009;SDS011;73031;44.726;37.760;2024-02-14T05:21:59;52.03;;;11.38;;
79009;SDS011;73031;44.726;37.760;2024-02-14T05:23:00;72.38;;;12.93;;
79009;SDS011;73031;44.726;37.760;2024-02-14T05:24:01;85.40;;;14.15;;
79009;SDS011;73031;44.726;37.760;2024-02-14T05:25:02;76.93;;;14.15;;
79009;SDS011;73031;44.726;37.760;2024-02-14T05:26:04;70.85;;;15.07;;
79009;SDS011;73031;44.726;37.760;2024-02-14T05:27:06;59.35;;;13.32;;
79009;SDS011;73031;44.726;37.760;2024-02-14T05:28:07;63.55;;;10.70;;
79009;SDS011;73031;44.726;37.760;2024-02-14T05:29:13;72.43;;;11.50;;
79009;SDS011;73031;44.726;37.760;2024-02-14T05:30:15;63.58;;;11.10;;
79009;SDS011;73031;44.726;37.760;2024-02-14T05:31:16;47.22;;;10.45;;
79009;SDS011;73031;44.726;37.760;2024-02-14T05:32:17;54.35;;;11.73;;
79009;SDS011;73031;44.726;37.760;2024-02-14T05:33:18;74.35;;;12.02;;
79009;SDS011;73031;44.726;37.760;2024-02-14T05:34:22;66.55;;;12.82;;
79009;SDS011;73031;44.726;37.760;2024-02-14T05:35:23;48.40;;;11.38;;
79009;SDS011;73031;44.726;37.760;2024-02-14T05:36:24;57.17;;;12.43;;
79009;SDS011;73031;44.726;37.760;2024-02-14T05:37:26;48.38;;;12.18;;
79009;SDS011;73031;44.726;37.760;2024-02-14T05:38:30;62.95;;;11.82;;
79009;SDS011;73031;44.726;37.760;2024-02-14T05:39:31;60.10;;;11.15;;
79009;SDS011;73031;44.726;37.760;2024-02-14T05:40:32;65.43;;;11.55;;
79009;SDS011;73031;44.726;37.760;2024-02-14T05:41:33;68.20;;;12.10;;
79009;SDS011;73031;44.726;37.760;2024-02-14T05:42:35;66.18;;;11.88;;
79009;SDS011;73031;44.726;37.760;2024-02-14T05:43:37;67.15;;;12.38;;
79009;SDS011;73031;44.726;37.760;2024-02-14T05:44:39;58.97;;;13.02;;
79009;SDS011;73031;44.726;37.760;2024-02-14T05:45:41;49.15;;;12.55;;
79009;SDS011;73031;44.726;37.760;2024-02-14T05:46:42;65.93;;;13.32;;
79009;SDS011;73031;44.726;37.760;2024-02-14T05:47:43;62.30;;;12.07;;
79009;SDS011;73031;44.726;37.760;2024-02-14T05:48:44;56.40;;;12.13;;
79009;SDS011;73031;44.726;37.760;2024-02-14T05:49:45;55.40;;;12.05;;
79009;SDS011;73031;44.726;37.760;2024-02-14T05:50:47;69.90;;;13.45;;
79009;SDS011;73031;44.726;37.760;2024-02-14T05:51:48;62.47;;;12.82;;
79009;SDS011;73031;44.726;37.760;2024-02-14T05:52:50;71.80;;;13.90;;
79009;SDS011;73031;44.726;37.760;2024-02-14T05:53:51;65.70;;;13.73;;
79009;SDS011;73031;44.726;37.760;2024-02-14T05:54:52;70.85;;;17.23;;
79009;SDS011;73031;44.726;37.760;2024-02-14T05:55:54;85.50;;;22.60;;
79009;SDS011;73031;44.726;37.760;2024-02-14T05:56:55;78.40;;;19.30;;
79009;SDS011;73031;44.726;37.760;2024-02-14T05:57:58;72.20;;;18.13;;
79009;SDS011;73031;44.726;37.760;2024-02-14T05:58:59;87.25;;;15.02;;